sensor_id;sensor_type;location;lat;lon;timestamp;pressure;altitude;pressure_sealevel;temperature;humidity
19831;BME280;10076;52.008;4.708;2022-07-23T00:01:28;101984.94;;;19.02;100.00
19831;BME280;10076;52.008;4.708;2022-07-23T00:03:54;101975.88;;;19.14;100.00
19831;BME280;10076;52.008;4.708;2022-07-23T00:06:20;101983.13;;;19.03;100.00
19831;BME280;10076;52.008;4.708;2022-07-23T00:08:45;101976.22;;;19.00;100.00
19831;BME280;10076;52.008;4.708;2022-07-23T00:11:10;101984.53;;;19.07;100.00
19831;BME280;10076;52.008;4.708;2022-07-23T00:13:36;101991.09;;;19.14;100.00
19831;BME280;10076;52.008;4.708;2022-07-23T00:16:01;101981.03;;;19.06;100.00
19831;BME280;10076;52.008;4.708;2022-07-23T00:18:27;101972.09;;;18.96;100.00
19831;BME280;10076;52.008;4.708;2022-07-23T00:20:52;101970.81;;;18.91;100.00
19831;BME280;10076;52.008;4.708;2022-07-23T00:23:17;101970.38;;;18.95;100.00
19831;BME280;10076;52.008;4.708;2022-07-23T00:25:43;101976.09;;;18.81;100.00
19831;BME280;10076;52.008;4.708;2022-07-23T00:28:10;101969.59;;;18.74;100.00
19831;BME280;10076;52.008;4.708;2022-07-23T00:30:35;101968.69;;;18.65;100.00
19831;BME280;10076;52.008;4.708;2022-07-23T00:33:04;101960.38;;;18.68;100.00
19831;BME280;10076;52.008;4.708;2022-07-23T00:35:34;101963.59;;;18.62;100.00
19831;BME280;10076;52.008;4.708;2022-07-23T00:38:00;101956.94;;;18.56;100.00
19831;BME280;10076;52.008;4.708;2022-07-23T00:40:27;101950.34;;;18.60;100.00
19831;BME280;10076;52.008;4.708;2022-07-23T00:42:52;101943.81;;;18.53;100.00
19831;BME280;10076;52.008;4.708;2022-07-23T00:45:18;101944.84;;;18.62;100.00
19831;BME280;10076;52.008;4.708;2022-07-23T00:47:44;101949.19;;;18.53;100.00
19831;BME280;10076;52.008;4.708;2022-07-23T00:50:10;101952.00;;;18.52;100.00
19831;BME280;10076;52.008;4.708;2022-07-23T00:52:37;101948.53;;;18.40;100.00
19831;BME280;10076;52.008;4.708;2022-07-23T00:55:05;101938.25;;;18.36;100.00
19831;BME280;10076;52.008;4.708;2022-07-23T00:57:31;101940.63;;;18.39;100.00
19831;BME280;10076;52.008;4.708;2022-07-23T00:59:56;101936.25;;;18.38;100.00
19831;BME280;10076;52.008;4.708;2022-07-23T01:02:23;101931.06;;;18.36;100.00
19831;BME280;10076;52.008;4.708;2022-07-23T01:04:49;101934.19;;;18.41;100.00
19831;BME280;10076;52.008;4.708;2022-07-23T01:07:14;101930.53;;;18.42;100.00
19831;BME280;10076;52.008;4.708;2022-07-23T01:09:40;101934.31;;;18.40;100.00
19831;BME280;10076;52.008;4.708;2022-07-23T01:12:06;101934.84;;;18.34;100.00
19831;BME280;10076;52.008;4.708;2022-07-23T01:14:32;101925.25;;;18.31;100.00
19831;BME280;10076;52.008;4.708;2022-07-23T01:16:57;101923.41;;;18.32;100.00
19831;BME280;10076;52.008;4.708;2022-07-23T01:19:23;101926.03;;;18.22;100.00
19831;BME280;10076;52.008;4.708;2022-07-23T01:21:50;101926.88;;;18.23;100.00
19831;BME280;10076;52.008;4.708;2022-07-23T01:24:16;101918.06;;;18.32;100.00
19831;BME280;10076;52.008;4.708;2022-07-23T01:26:44;101918.84;;;18.23;100.00
19831;BME280;10076;52.008;4.708;2022-07-23T01:29:10;101915.00;;;18.36;100.00
19831;BME280;10076;52.008;4.708;2022-07-23T01:31:36;101915.22;;;18.24;100.00
19831;BME280;10076;52.008;4.708;2022-07-23T01:34:02;101921.66;;;18.21;100.00
19831;BME280;10076;52.008;4.708;2022-07-23T01:36:28;101924.25;;;18.12;100.00
19831;BME280;10076;52.008;4.708;2022-07-23T01:38:53;101927.63;;;18.25;100.00
19831;BME280;10076;52.008;4.708;2022-07-23T01:41:19;101931.28;;;18.13;100.00
19831;BME280;10076;52.008;4.708;2022-07-23T01:43:44;101930.84;;;18.08;100.00
19831;BME280;10076;52.008;4.708;2022-07-23T01:46:10;101933.97;;;18.13;100.00
19831;BME280;10076;52.008;4.708;2022-07-23T01:48:35;101930.25;;;18.04;100.00
19831;BME280;10076;52.008;4.708;2022-07-23T01:51:01;101934.03;;;18.02;100.00
19831;BME280;10076;52.008;4.708;2022-07-23T01:53:26;101934.72;;;18.04;100.00
19831;BME280;10076;52.008;4.708;2022-07-23T01:55:52;101936.19;;;18.08;100.00
19831;BME280;10076;52.008;4.708;2022-07-23T01:58:17;101938.38;;;18.03;100.00
19831;BME280;10076;52.008;4.708;2022-07-23T02:00:42;101943.84;;;18.01;100.00
19831;BME280;10076;52.008;4.708;2022-07-23T02:03:07;101938.31;;;17.94;100.00
19831;BME280;10076;52.008;4.708;2022-07-23T02:05:33;101936.47;;;17.94;100.00
19831;BME280;10076;52.008;4.708;2022-07-23T02:07:59;101937.44;;;17.93;100.00
19831;BME280;10076;52.008;4.708;2022-07-23T02:10:25;101932.47;;;17.89;100.00
19831;BME280;10076;52.008;4.708;2022-07-23T02:12:50;101934.69;;;17.84;100.00
19831;BME280;10076;52.008;4.708;2022-07-23T02:15:16;101927.13;;;17.89;100.00
19831;BME280;10076;52.008;4.708;2022-07-23T02:17:41;101928.25;;;17.86;100.00
19831;BME280;10076;52.008;4.708;2022-07-23T02:20:08;101927.88;;;17.91;100.00
19831;BME280;10076;52.008;4.708;2022-07-23T02:22:33;101931.03;;;17.85;100.00
19831;BME280;10076;52.008;4.708;2022-07-23T02:24:59;101927.28;;;17.87;100.00
19831;BME280;10076;52.008;4.708;2022-07-23T02:27:24;101928.13;;;17.88;100.00
19831;BME280;10076;52.008;4.708;2022-07-23T02:29:49;101927.88;;;17.91;100.00
19831;BME280;10076;52.008;4.708;2022-07-23T02:32:15;101925.31;;;17.89;100.00
19831;BME280;10076;52.008;4.708;2022-07-23T02:34:40;101920.50;;;17.83;100.00
19831;BME280;10076;52.008;4.708;2022-07-23T02:37:05;101923.81;;;17.76;100.00
19831;BME280;10076;52.008;4.708;2022-07-23T02:39:31;101934.88;;;17.71;100.00
19831;BME280;10076;52.008;4.708;2022-07-23T02:41:56;101935.59;;;17.73;100.00
19831;BME280;10076;52.008;4.708;2022-07-23T02:44:21;101936.44;;;17.74;100.00
19831;BME280;10076;52.008;4.708;2022-07-23T02:46:47;101938.38;;;17.72;100.00
19831;BME280;10076;52.008;4.708;2022-07-23T02:49:12;101937.78;;;17.68;100.00
19831;BME280;10076;52.008;4.708;2022-07-23T02:51:37;101944.59;;;17.72;100.00
19831;BME280;10076;52.008;4.708;2022-07-23T02:54:03;101943.63;;;17.73;100.00
19831;BME280;10076;52.008;4.708;2022-07-23T02:56:28;101951.63;;;17.73;100.00
19831;BME280;10076;52.008;4.708;2022-07-23T02:58:53;101952.34;;;17.75;100.00
19831;BME280;10076;52.008;4.708;2022-07-23T03:01:19;101957.81;;;17.74;100.00
19831;BME280;10076;52.008;4.708;2022-07-23T03:03:44;101953.44;;;17.73;100.00
19831;BME280;10076;52.008;4.708;2022-07-23T03:06:09;101955.50;;;17.69;100.00
19831;BME280;10076;52.008;4.708;2022-07-23T03:08:35;101942.06;;;17.60;100.00
19831;BME280;10076;52.008;4.708;2022-07-23T03:11:00;101947.53;;;17.58;100.00
19831;BME280;10076;52.008;4.708;2022-07-23T03:13:25;101943.38;;;17.65;100.00
19831;BME280;10076;52.008;4.708;2022-07-23T03:15:51;101941.09;;;17.61;100.00
19831;BME280;10076;52.008;4.708;2022-07-23T03:18:16;101941.34;;;17.58;100.00
19831;BME280;10076;52.008;4.708;2022-07-23T03:20:41;101937.72;;;17.59;100.00
19831;BME280;10076;52.008;4.708;2022-07-23T03:23:07;101942.88;;;17.71;100.00
19831;BME280;10076;52.008;4.708;2022-07-23T03:25:32;101939.97;;;17.63;100.00
19831;BME280;10076;52.008;4.708;2022-07-23T03:27:57;101942.56;;;17.54;100.00
19831;BME280;10076;52.008;4.708;2022-07-23T03:30:23;101945.22;;;17.54;100.00
19831;BME280;10076;52.008;4.708;2022-07-23T03:32:48;101939.06;;;17.53;100.00
19831;BME280;10076;52.008;4.708;2022-07-23T03:35:13;101933.94;;;17.50;100.00
19831;BME280;10076;52.008;4.708;2022-07-23T03:37:38;101934.91;;;17.60;100.00
19831;BME280;10076;52.008;4.708;2022-07-23T03:40:04;101937.63;;;17.49;100.00
19831;BME280;10076;52.008;4.708;2022-07-23T03:42:30;101931.41;;;17.49;100.00
19831;BME280;10076;52.008;4.708;2022-07-23T03:44:55;101939.81;;;17.44;100.00
19831;BME280;10076;52.008;4.708;2022-07-23T03:47:20;101941.50;;;17.45;100.00
19831;BME280;10076;52.008;4.708;2022-07-23T03:49:48;101945.03;;;17.46;100.00
19831;BME280;10076;52.008;4.708;2022-07-23T03:52:13;101940.88;;;17.53;100.00
19831;BME280;10076;52.008;4.708;2022-07-23T03:54:39;101946.78;;;17.56;100.00
19831;BME280;10076;52.008;4.708;2022-07-23T03:57:04;101941.59;;;17.55;100.00
19831;BME280;10076;52.008;4.708;2022-07-23T03:59:29;101944.75;;;17.49;100.00
19831;BME280;10076;52.008;4.708;2022-07-23T04:01:55;101959.47;;;17.43;100.00
19831;BME280;10076;52.008;4.708;2022-07-23T04:04:20;101961.28;;;17.43;100.00
19831;BME280;10076;52.008;4.708;2022-07-23T04:06:45;101957.78;;;17.42;100.00
19831;BME280;10076;52.008;4.708;2022-07-23T04:09:10;101960.28;;;17.55;100.00
19831;BME280;10076;52.008;4.708;2022-07-23T04:11:36;101960.88;;;17.58;100.00
19831;BME280;10076;52.008;4.708;2022-07-23T04:14:01;101958.53;;;17.65;100.00
19831;BME280;10076;52.008;4.708;2022-07-23T04:16:27;101968.91;;;17.58;100.00
19831;BME280;10076;52.008;4.708;2022-07-23T04:18:53;101955.06;;;17.53;100.00
19831;BME280;10076;52.008;4.708;2022-07-23T04:21:18;101959.66;;;17.62;100.00
19831;BME280;10076;52.008;4.708;2022-07-23T04:23:44;101964.16;;;17.62;100.00
19831;BME280;10076;52.008;4.708;2022-07-23T04:26:09;101963.19;;;17.63;100.00
19831;BME280;10076;52.008;4.708;2022-07-23T04:28:34;101966.47;;;17.66;100.00
19831;BME280;10076;52.008;4.708;2022-07-23T04:31:00;101966.19;;;17.69;100.00
19831;BME280;10076;52.008;4.708;2022-07-23T04:33:25;101967.41;;;17.76;100.00
19831;BME280;10076;52.008;4.708;2022-07-23T04:35:50;101970.91;;;17.88;100.00
19831;BME280;10076;52.008;4.708;2022-07-23T04:38:16;101966.47;;;17.98;100.00
19831;BME280;10076;52.008;4.708;2022-07-23T04:40:41;101973.53;;;17.99;100.00
19831;BME280;10076;52.008;4.708;2022-07-23T04:43:06;101978.94;;;18.08;100.00
19831;BME280;10076;52.008;4.708;2022-07-23T04:45:31;101986.44;;;18.14;100.00
19831;BME280;10076;52.008;4.708;2022-07-23T04:47:57;101983.28;;;18.20;100.00
19831;BME280;10076;52.008;4.708;2022-07-23T04:50:22;101981.69;;;18.17;100.00
19831;BME280;10076;52.008;4.708;2022-07-23T04:52:48;101982.53;;;18.29;100.00
19831;BME280;10076;52.008;4.708;2022-07-23T04:55:14;101977.75;;;18.32;100.00
19831;BME280;10076;52.008;4.708;2022-07-23T04:57:40;101984.28;;;18.39;100.00
19831;BME280;10076;52.008;4.708;2022-07-23T05:00:06;101987.75;;;18.51;100.00
19831;BME280;10076;52.008;4.708;2022-07-23T05:02:32;101985.50;;;18.56;100.00
19831;BME280;10076;52.008;4.708;2022-07-23T05:04:57;101981.03;;;18.56;100.00
19831;BME280;10076;52.008;4.708;2022-07-23T05:07:23;101985.06;;;18.71;100.00
19831;BME280;10076;52.008;4.708;2022-07-23T05:09:48;101978.00;;;18.70;100.00
19831;BME280;10076;52.008;4.708;2022-07-23T05:12:13;101993.81;;;18.73;100.00
19831;BME280;10076;52.008;4.708;2022-07-23T05:14:38;101988.47;;;18.73;100.00
19831;BME280;10076;52.008;4.708;2022-07-23T05:17:04;101981.41;;;18.72;100.00
19831;BME280;10076;52.008;4.708;2022-07-23T05:19:29;101984.66;;;18.75;100.00
19831;BME280;10076;52.008;4.708;2022-07-23T05:21:54;101988.41;;;18.64;100.00
19831;BME280;10076;52.008;4.708;2022-07-23T05:24:20;101990.41;;;18.71;100.00
19831;BME280;10076;52.008;4.708;2022-07-23T05:26:45;101986.38;;;18.76;100.00
19831;BME280;10076;52.008;4.708;2022-07-23T05:29:11;101989.94;;;18.86;100.00
19831;BME280;10076;52.008;4.708;2022-07-23T05:31:36;101991.94;;;19.14;100.00
19831;BME280;10076;52.008;4.708;2022-07-23T05:34:01;101990.81;;;19.17;100.00
19831;BME280;10076;52.008;4.708;2022-07-23T05:36:27;101989.63;;;19.40;100.00
19831;BME280;10076;52.008;4.708;2022-07-23T05:38:52;101982.59;;;19.48;100.00
19831;BME280;10076;52.008;4.708;2022-07-23T05:41:17;101990.22;;;19.52;100.00
19831;BME280;10076;52.008;4.708;2022-07-23T05:43:42;101993.63;;;19.54;100.00
19831;BME280;10076;52.008;4.708;2022-07-23T05:46:08;101987.44;;;19.63;100.00
19831;BME280;10076;52.008;4.708;2022-07-23T05:48:34;101987.47;;;19.73;100.00
19831;BME280;10076;52.008;4.708;2022-07-23T05:50:59;101991.72;;;19.85;100.00
19831;BME280;10076;52.008;4.708;2022-07-23T05:53:26;101990.00;;;19.84;100.00
19831;BME280;10076;52.008;4.708;2022-07-23T05:55:51;101998.38;;;20.09;100.00
19831;BME280;10076;52.008;4.708;2022-07-23T05:58:16;101999.66;;;20.05;100.00
19831;BME280;10076;52.008;4.708;2022-07-23T06:00:41;101997.69;;;20.16;100.00
19831;BME280;10076;52.008;4.708;2022-07-23T06:03:07;101994.00;;;20.08;100.00
19831;BME280;10076;52.008;4.708;2022-07-23T06:05:32;101994.72;;;20.19;100.00
19831;BME280;10076;52.008;4.708;2022-07-23T06:07:57;102002.94;;;20.27;100.00
19831;BME280;10076;52.008;4.708;2022-07-23T06:10:23;102011.41;;;20.32;100.00
19831;BME280;10076;52.008;4.708;2022-07-23T06:12:48;102010.69;;;20.30;100.00
19831;BME280;10076;52.008;4.708;2022-07-23T06:15:13;102012.66;;;20.47;100.00
19831;BME280;10076;52.008;4.708;2022-07-23T06:17:39;102019.28;;;20.43;100.00
19831;BME280;10076;52.008;4.708;2022-07-23T06:20:08;102011.34;;;20.51;100.00
19831;BME280;10076;52.008;4.708;2022-07-23T06:22:35;102016.84;;;20.69;100.00
19831;BME280;10076;52.008;4.708;2022-07-23T06:25:00;102016.28;;;20.65;100.00
19831;BME280;10076;52.008;4.708;2022-07-23T06:27:26;102020.28;;;20.61;100.00
19831;BME280;10076;52.008;4.708;2022-07-23T06:29:51;102026.19;;;20.65;100.00
19831;BME280;10076;52.008;4.708;2022-07-23T06:32:17;102010.94;;;20.84;100.00
19831;BME280;10076;52.008;4.708;2022-07-23T06:34:42;102002.13;;;21.01;100.00
19831;BME280;10076;52.008;4.708;2022-07-23T06:37:07;102003.22;;;21.08;100.00
19831;BME280;10076;52.008;4.708;2022-07-23T06:39:32;102009.31;;;21.00;100.00
19831;BME280;10076;52.008;4.708;2022-07-23T06:41:58;102005.19;;;21.06;100.00
19831;BME280;10076;52.008;4.708;2022-07-23T06:44:23;102006.00;;;21.16;100.00
19831;BME280;10076;52.008;4.708;2022-07-23T06:46:49;102012.84;;;21.01;100.00
19831;BME280;10076;52.008;4.708;2022-07-23T06:49:14;102015.16;;;21.23;100.00
19831;BME280;10076;52.008;4.708;2022-07-23T06:51:39;102006.09;;;21.33;100.00
19831;BME280;10076;52.008;4.708;2022-07-23T06:54:05;102009.44;;;21.71;100.00
19831;BME280;10076;52.008;4.708;2022-07-23T06:56:30;102011.94;;;22.17;100.00
19831;BME280;10076;52.008;4.708;2022-07-23T06:58:55;102013.94;;;22.15;100.00
19831;BME280;10076;52.008;4.708;2022-07-23T07:01:21;102016.13;;;22.29;100.00
19831;BME280;10076;52.008;4.708;2022-07-23T07:03:46;102008.81;;;22.39;100.00
19831;BME280;10076;52.008;4.708;2022-07-23T07:06:13;102008.94;;;22.55;100.00
19831;BME280;10076;52.008;4.708;2022-07-23T07:08:39;102016.22;;;22.62;100.00
19831;BME280;10076;52.008;4.708;2022-07-23T07:11:04;102014.56;;;22.44;100.00
19831;BME280;10076;52.008;4.708;2022-07-23T07:13:29;102022.34;;;22.47;100.00
19831;BME280;10076;52.008;4.708;2022-07-23T07:15:55;102026.88;;;22.64;100.00
19831;BME280;10076;52.008;4.708;2022-07-23T07:18:21;102027.03;;;22.45;100.00
19831;BME280;10076;52.008;4.708;2022-07-23T07:20:46;102042.31;;;22.44;100.00
19831;BME280;10076;52.008;4.708;2022-07-23T07:23:12;102025.03;;;22.47;100.00
19831;BME280;10076;52.008;4.708;2022-07-23T07:25:37;102029.81;;;22.53;100.00
19831;BME280;10076;52.008;4.708;2022-07-23T07:28:03;102027.53;;;22.66;100.00
19831;BME280;10076;52.008;4.708;2022-07-23T07:30:28;102030.56;;;22.63;100.00
19831;BME280;10076;52.008;4.708;2022-07-23T07:32:53;102030.88;;;22.42;100.00
19831;BME280;10076;52.008;4.708;2022-07-23T07:35:19;102036.41;;;22.58;100.00
19831;BME280;10076;52.008;4.708;2022-07-23T07:37:44;102036.69;;;22.73;100.00
19831;BME280;10076;52.008;4.708;2022-07-23T07:40:09;102046.56;;;22.90;100.00
19831;BME280;10076;52.008;4.708;2022-07-23T07:42:44;102042.56;;;22.93;100.00
19831;BME280;10076;52.008;4.708;2022-07-23T07:45:09;102046.91;;;22.87;100.00
19831;BME280;10076;52.008;4.708;2022-07-23T07:47:34;102047.81;;;22.95;100.00
19831;BME280;10076;52.008;4.708;2022-07-23T07:50:00;102046.06;;;23.11;100.00
19831;BME280;10076;52.008;4.708;2022-07-23T07:52:25;102041.91;;;22.99;100.00
19831;BME280;10076;52.008;4.708;2022-07-23T07:54:51;102043.78;;;22.99;100.00
19831;BME280;10076;52.008;4.708;2022-07-23T07:57:16;102047.84;;;23.20;100.00
19831;BME280;10076;52.008;4.708;2022-07-23T07:59:41;102048.78;;;23.11;100.00
19831;BME280;10076;52.008;4.708;2022-07-23T08:02:07;102053.88;;;23.22;100.00
19831;BME280;10076;52.008;4.708;2022-07-23T08:04:32;102056.75;;;23.21;100.00
19831;BME280;10076;52.008;4.708;2022-07-23T08:06:57;102054.72;;;23.48;100.00
19831;BME280;10076;52.008;4.708;2022-07-23T08:09:22;102062.09;;;23.46;100.00
19831;BME280;10076;52.008;4.708;2022-07-23T08:11:48;102054.75;;;23.56;100.00
19831;BME280;10076;52.008;4.708;2022-07-23T08:14:13;102058.66;;;23.62;100.00
19831;BME280;10076;52.008;4.708;2022-07-23T08:16:38;102066.78;;;23.69;100.00
19831;BME280;10076;52.008;4.708;2022-07-23T08:19:03;102061.94;;;23.73;100.00
19831;BME280;10076;52.008;4.708;2022-07-23T08:21:29;102058.53;;;23.71;100.00
19831;BME280;10076;52.008;4.708;2022-07-23T08:23:54;102058.94;;;23.92;100.00
19831;BME280;10076;52.008;4.708;2022-07-23T08:26:19;102060.13;;;23.89;100.00
19831;BME280;10076;52.008;4.708;2022-07-23T08:28:45;102063.69;;;23.98;100.00
19831;BME280;10076;52.008;4.708;2022-07-23T08:31:10;102068.81;;;24.09;100.00
19831;BME280;10076;52.008;4.708;2022-07-23T08:33:36;102064.75;;;24.21;100.00
19831;BME280;10076;52.008;4.708;2022-07-23T08:36:03;102062.59;;;24.16;100.00
19831;BME280;10076;52.008;4.708;2022-07-23T08:38:28;102065.13;;;24.26;100.00
19831;BME280;10076;52.008;4.708;2022-07-23T08:40:55;102072.56;;;24.39;100.00
19831;BME280;10076;52.008;4.708;2022-07-23T08:43:28;102067.41;;;24.62;100.00
19831;BME280;10076;52.008;4.708;2022-07-23T08:45:55;102071.59;;;24.80;100.00
19831;BME280;10076;52.008;4.708;2022-07-23T08:48:25;102067.22;;;24.95;100.00
19831;BME280;10076;52.008;4.708;2022-07-23T08:50:54;102072.78;;;25.02;100.00
19831;BME280;10076;52.008;4.708;2022-07-23T08:53:21;102066.19;;;25.20;100.00
19831;BME280;10076;52.008;4.708;2022-07-23T08:55:48;102077.16;;;25.10;100.00
19831;BME280;10076;52.008;4.708;2022-07-23T08:58:14;102073.22;;;25.45;100.00
19831;BME280;10076;52.008;4.708;2022-07-23T09:00:39;102073.56;;;25.42;100.00
19831;BME280;10076;52.008;4.708;2022-07-23T09:03:05;102076.53;;;25.63;100.00
19831;BME280;10076;52.008;4.708;2022-07-23T09:05:30;102071.13;;;25.63;100.00
19831;BME280;10076;52.008;4.708;2022-07-23T09:10:58;102075.16;;;25.75;100.00
19831;BME280;10076;52.008;4.708;2022-07-23T09:16:23;102078.56;;;26.37;100.00
19831;BME280;10076;52.008;4.708;2022-07-23T09:18:53;102081.44;;;26.80;100.00
19831;BME280;10076;52.008;4.708;2022-07-23T09:21:30;102081.19;;;27.12;100.00
19831;BME280;10076;52.008;4.708;2022-07-23T09:24:05;102080.91;;;27.22;100.00
19831;BME280;10076;52.008;4.708;2022-07-23T09:26:41;102082.13;;;27.48;100.00
19831;BME280;10076;52.008;4.708;2022-07-23T09:34:11;102085.97;;;28.88;100.00
19831;BME280;10076;52.008;4.708;2022-07-23T09:36:37;102084.34;;;29.48;99.00
19831;BME280;10076;52.008;4.708;2022-07-23T09:39:03;102077.63;;;29.84;100.00
19831;BME280;10076;52.008;4.708;2022-07-23T09:41:40;102082.47;;;29.89;100.00
19831;BME280;10076;52.008;4.708;2022-07-23T09:44:18;102086.06;;;29.55;100.00
19831;BME280;10076;52.008;4.708;2022-07-23T09:46:45;102087.66;;;29.43;100.00
19831;BME280;10076;52.008;4.708;2022-07-23T09:49:16;102078.88;;;29.41;100.00
19831;BME280;10076;52.008;4.708;2022-07-23T09:52:07;102082.16;;;29.64;100.00
19831;BME280;10076;52.008;4.708;2022-07-23T09:54:35;102079.94;;;29.81;100.00
19831;BME280;10076;52.008;4.708;2022-07-23T09:57:07;102081.41;;;30.43;93.86
19831;BME280;10076;52.008;4.708;2022-07-23T09:59:36;102088.88;;;31.20;89.74
19831;BME280;10076;52.008;4.708;2022-07-23T10:02:02;102089.34;;;31.99;81.85
19831;BME280;10076;52.008;4.708;2022-07-23T10:04:29;102099.88;;;33.01;80.23
19831;BME280;10076;52.008;4.708;2022-07-23T10:06:58;102093.59;;;33.85;81.95
19831;BME280;10076;52.008;4.708;2022-07-23T10:09:28;102095.00;;;34.93;75.85
19831;BME280;10076;52.008;4.708;2022-07-23T10:11:56;102096.97;;;35.61;68.85
19831;BME280;10076;52.008;4.708;2022-07-23T10:14:33;102095.75;;;36.59;65.22
19831;BME280;10076;52.008;4.708;2022-07-23T10:17:01;102100.34;;;37.51;62.65
19831;BME280;10076;52.008;4.708;2022-07-23T10:19:27;102105.63;;;38.12;55.65
19831;BME280;10076;52.008;4.708;2022-07-23T10:21:58;102101.44;;;37.50;54.78
19831;BME280;10076;52.008;4.708;2022-07-23T10:27:54;102092.47;;;36.61;53.64
19831;BME280;10076;52.008;4.708;2022-07-23T10:30:43;102090.91;;;36.82;53.41
19831;BME280;10076;52.008;4.708;2022-07-23T10:33:20;102088.31;;;37.95;56.32
19831;BME280;10076;52.008;4.708;2022-07-23T10:35:56;102091.63;;;38.66;50.49
19831;BME280;10076;52.008;4.708;2022-07-23T10:38:28;102097.56;;;39.47;49.50
19831;BME280;10076;52.008;4.708;2022-07-23T10:41:00;102084.16;;;38.98;47.74
19831;BME280;10076;52.008;4.708;2022-07-23T10:43:27;102090.94;;;39.53;47.29
19831;BME280;10076;52.008;4.708;2022-07-23T10:45:53;102082.25;;;40.62;46.46
19831;BME280;10076;52.008;4.708;2022-07-23T10:48:25;102095.31;;;41.16;43.22
19831;BME280;10076;52.008;4.708;2022-07-23T10:51:14;102093.78;;;41.83;41.35
19831;BME280;10076;52.008;4.708;2022-07-23T10:56:14;102077.28;;;40.84;42.48
19831;BME280;10076;52.008;4.708;2022-07-23T10:58:47;102074.97;;;39.70;42.69
19831;BME280;10076;52.008;4.708;2022-07-23T11:01:36;102077.69;;;40.06;43.07
19831;BME280;10076;52.008;4.708;2022-07-23T11:04:02;102074.63;;;40.08;43.22
19831;BME280;10076;52.008;4.708;2022-07-23T11:09:29;102076.38;;;41.63;41.28
19831;BME280;10076;52.008;4.708;2022-07-23T11:15:12;102070.66;;;42.50;38.00
19831;BME280;10076;52.008;4.708;2022-07-23T11:20:14;102069.78;;;42.55;38.60
19831;BME280;10076;52.008;4.708;2022-07-23T11:25:14;102075.00;;;43.56;37.05
19831;BME280;10076;52.008;4.708;2022-07-23T11:27:53;102074.78;;;44.36;35.88
19831;BME280;10076;52.008;4.708;2022-07-23T11:32:54;102076.88;;;45.58;35.57
19831;BME280;10076;52.008;4.708;2022-07-23T11:35:44;102071.63;;;45.70;33.92
19831;BME280;10076;52.008;4.708;2022-07-23T11:38:14;102078.47;;;46.39;34.06
19831;BME280;10076;52.008;4.708;2022-07-23T11:40:40;102078.41;;;47.49;32.06
19831;BME280;10076;52.008;4.708;2022-07-23T11:43:10;102074.69;;;48.51;31.47
19831;BME280;10076;52.008;4.708;2022-07-23T11:45:38;102078.91;;;49.08;29.89
19831;BME280;10076;52.008;4.708;2022-07-23T11:48:06;102070.38;;;48.28;29.87
19831;BME280;10076;52.008;4.708;2022-07-23T11:50:32;102073.75;;;49.26;28.59
19831;BME280;10076;52.008;4.708;2022-07-23T11:52:58;102068.56;;;49.83;28.42
19831;BME280;10076;52.008;4.708;2022-07-23T11:55:24;102062.94;;;49.45;29.17
19831;BME280;10076;52.008;4.708;2022-07-23T11:57:51;102055.53;;;48.87;28.24
19831;BME280;10076;52.008;4.708;2022-07-23T12:00:22;102045.97;;;48.88;27.52
19831;BME280;10076;52.008;4.708;2022-07-23T12:02:53;102050.59;;;48.16;27.95
19831;BME280;10076;52.008;4.708;2022-07-23T12:05:22;102038.69;;;49.32;28.52
19831;BME280;10076;52.008;4.708;2022-07-23T12:07:50;102037.13;;;49.81;27.49
19831;BME280;10076;52.008;4.708;2022-07-23T12:15:20;102040.00;;;50.42;26.57
19831;BME280;10076;52.008;4.708;2022-07-23T12:17:47;102034.00;;;50.96;26.41
19831;BME280;10076;52.008;4.708;2022-07-23T12:20:16;102034.78;;;50.32;25.11
19831;BME280;10076;52.008;4.708;2022-07-23T12:22:44;102043.84;;;50.17;25.32
19831;BME280;10076;52.008;4.708;2022-07-23T12:25:11;102030.44;;;48.73;25.49
19831;BME280;10076;52.008;4.708;2022-07-23T12:27:37;102037.03;;;49.69;25.96
19831;BME280;10076;52.008;4.708;2022-07-23T12:32:44;102033.94;;;49.90;25.95
19831;BME280;10076;52.008;4.708;2022-07-23T12:35:10;102033.13;;;49.90;25.90
19831;BME280;10076;52.008;4.708;2022-07-23T12:37:38;102026.13;;;49.67;25.14
19831;BME280;10076;52.008;4.708;2022-07-23T12:40:22;102029.84;;;50.29;25.21
19831;BME280;10076;52.008;4.708;2022-07-23T12:42:51;102019.59;;;49.55;24.48
19831;BME280;10076;52.008;4.708;2022-07-23T12:45:17;102019.69;;;48.84;25.44
19831;BME280;10076;52.008;4.708;2022-07-23T12:48:03;102011.72;;;46.11;26.46
19831;BME280;10076;52.008;4.708;2022-07-23T12:50:48;102011.00;;;46.06;27.19
19831;BME280;10076;52.008;4.708;2022-07-23T12:53:31;102004.75;;;44.88;28.25
19831;BME280;10076;52.008;4.708;2022-07-23T12:56:04;102000.84;;;42.57;30.11
19831;BME280;10076;52.008;4.708;2022-07-23T12:58:41;101998.25;;;40.86;32.15
19831;BME280;10076;52.008;4.708;2022-07-23T13:01:07;101999.41;;;39.54;34.38
19831;BME280;10076;52.008;4.708;2022-07-23T13:03:39;101990.09;;;37.99;38.22
19831;BME280;10076;52.008;4.708;2022-07-23T13:06:07;101986.25;;;38.00;38.26
19831;BME280;10076;52.008;4.708;2022-07-23T13:08:34;101996.38;;;38.16;37.97
19831;BME280;10076;52.008;4.708;2022-07-23T13:11:01;101998.06;;;37.53;38.23
19831;BME280;10076;52.008;4.708;2022-07-23T13:13:30;101992.06;;;36.69;40.48
19831;BME280;10076;52.008;4.708;2022-07-23T13:15:57;101984.91;;;36.07;43.31
19831;BME280;10076;52.008;4.708;2022-07-23T13:18:22;101986.06;;;35.84;46.19
19831;BME280;10076;52.008;4.708;2022-07-23T13:20:49;101985.00;;;36.12;44.65